Sofia, Bulgaria
Current Conditions -  °F | °C
As of 1:30 PM on Tuesday 21 Oct 2014 (Local Time) from LBSF Reporting Station
Clear Clear  
Wind Chill: 63°   Ceiling: Unl
Heat Index: 63°   Visibility: 6mi
Dew Point: 45°   Wind: 2mph
Humidity: 52%   Direction: NA
Pressure: 29.94"   Gusts: NA
Location:  42.69°N, 23.31°E
Report Text: LBSF 211030Z VRB01MPS CAVOK 17/07 Q1014 NOSIG
Loading
Personal Weather Stations






























Interactive Weather Map
Tropical Storm Tracking
New forecast layout! Learn more

10-Day Weather Forecast

Advertisements
Track Severe Weather on mobile